createdAt,value
2017-07-20T00:00:46.577Z,29.80
2017-07-20T00:03:13.252Z,21.60
2017-07-20T00:05:39.932Z,24.40
2017-07-20T00:08:06.592Z,22.17
2017-07-20T00:10:33.244Z,21.63
2017-07-20T00:12:59.906Z,21.10
2017-07-20T00:15:26.543Z,30.17
2017-07-20T00:17:53.296Z,38.17
2017-07-20T00:20:19.960Z,31.87
2017-07-20T00:22:46.618Z,25.90
2017-07-20T00:25:13.302Z,25.07
2017-07-20T00:27:40.004Z,32.87
2017-07-20T00:30:06.679Z,30.60
2017-07-20T00:32:33.342Z,30.27
2017-07-20T00:35:00.000Z,34.93
2017-07-20T00:37:26.695Z,31.47
2017-07-20T00:39:53.351Z,32.90
2017-07-20T00:42:20.044Z,26.97
2017-07-20T00:44:46.688Z,37.90
2017-07-20T00:47:13.396Z,35.50
2017-07-20T00:49:40.059Z,20.03
2017-07-20T00:52:06.725Z,31.40
2017-07-20T00:54:33.383Z,33.20
2017-07-20T00:57:00.058Z,38.57
2017-07-20T00:59:26.727Z,35.00
2017-07-20T01:01:53.379Z,37.73
2017-07-20T01:04:20.094Z,38.23
2017-07-20T01:06:46.743Z,32.73
2017-07-20T01:09:13.402Z,36.97
2017-07-20T01:11:40.069Z,44.80
2017-07-20T01:14:06.735Z,38.23
2017-07-20T01:16:33.414Z,39.10
2017-07-20T01:19:00.099Z,48.50
2017-07-20T01:21:26.740Z,45.73
2017-07-20T01:23:53.426Z,39.57
2017-07-20T01:26:20.108Z,34.27
2017-07-20T01:28:46.758Z,41.40
2017-07-20T01:31:13.422Z,40.33
2017-07-20T01:33:40.080Z,42.97
2017-07-20T01:36:06.721Z,30.60
2017-07-20T01:38:33.368Z,45.77
2017-07-20T01:41:00.055Z,28.17
2017-07-20T01:43:26.712Z,34.33
2017-07-20T01:45:53.366Z,36.13
2017-07-20T01:48:20.098Z,43.10
2017-07-20T01:50:46.758Z,43.40
2017-07-20T01:53:13.411Z,44.33
2017-07-20T01:55:40.082Z,43.97
2017-07-20T01:58:06.741Z,54.43
2017-07-20T02:00:33.408Z,59.50
2017-07-20T02:03:00.091Z,43.63
2017-07-20T02:05:26.740Z,52.67
2017-07-20T02:07:53.419Z,59.73
2017-07-20T02:10:20.092Z,43.60
2017-07-20T02:12:46.743Z,70.00
2017-07-20T02:15:13.419Z,63.87
2017-07-20T02:17:40.106Z,60.40
2017-07-20T02:20:06.768Z,46.67
2017-07-20T02:22:33.422Z,56.13
2017-07-20T02:25:00.090Z,58.40
2017-07-20T02:27:26.788Z,59.90
2017-07-20T02:29:53.447Z,64.27
2017-07-20T02:32:20.152Z,59.43
2017-07-20T02:34:46.792Z,59.33
2017-07-20T02:37:13.440Z,34.30
2017-07-20T02:39:40.120Z,37.47
2017-07-20T02:42:06.764Z,39.87
2017-07-20T02:44:33.429Z,40.30
2017-07-20T02:47:00.124Z,42.00
2017-07-20T02:49:26.826Z,56.87
2017-07-20T02:51:53.502Z,47.80
2017-07-20T02:54:20.176Z,61.60
2017-07-20T02:56:46.811Z,59.73
2017-07-20T02:59:13.491Z,60.10
2017-07-20T03:01:40.204Z,69.33
2017-07-20T03:04:06.871Z,69.47
2017-07-20T03:06:33.547Z,70.03
2017-07-20T03:09:00.237Z,67.20
2017-07-20T03:11:26.892Z,90.40
2017-07-20T03:13:53.565Z,64.33
2017-07-20T03:16:20.264Z,69.03
2017-07-20T03:18:46.922Z,85.53
2017-07-20T03:21:13.603Z,78.83
2017-07-20T03:23:40.270Z,79.97
2017-07-20T03:26:06.918Z,83.50
2017-07-20T03:28:33.582Z,78.43
2017-07-20T03:31:00.275Z,80.97
2017-07-20T03:33:26.922Z,63.70
2017-07-20T03:35:53.576Z,70.33
2017-07-20T03:38:20.263Z,68.77
2017-07-20T03:40:46.911Z,81.47
2017-07-20T03:43:13.563Z,76.40
2017-07-20T03:45:40.228Z,63.07
2017-07-20T03:48:06.890Z,59.83
2017-07-20T03:50:33.571Z,56.23
2017-07-20T03:53:00.251Z,65.00
2017-07-20T03:55:26.907Z,52.57
2017-07-20T03:57:53.559Z,47.33
2017-07-20T04:00:20.264Z,50.43
2017-07-20T04:02:46.941Z,48.30
2017-07-20T04:05:13.579Z,41.67
2017-07-20T04:07:40.279Z,49.03
2017-07-20T04:10:06.947Z,40.83
2017-07-20T04:12:33.597Z,34.70
2017-07-20T04:15:00.276Z,28.00
2017-07-20T04:17:26.916Z,32.20
2017-07-20T04:19:53.568Z,30.40
2017-07-20T04:22:20.255Z,27.30
2017-07-20T04:24:46.904Z,33.50
2017-07-20T04:27:13.553Z,27.83
2017-07-20T04:29:40.242Z,27.00
2017-07-20T04:32:06.900Z,28.10
2017-07-20T04:34:33.555Z,31.80
2017-07-20T04:37:00.242Z,25.37
2017-07-20T04:39:26.915Z,23.50
2017-07-20T04:41:53.556Z,21.57
2017-07-20T04:44:20.262Z,22.47
2017-07-20T04:46:46.930Z,13.67
2017-07-20T04:49:13.591Z,20.40
2017-07-20T04:51:40.269Z,16.93
2017-07-20T04:54:06.916Z,17.17
2017-07-20T04:56:33.552Z,25.63
2017-07-20T04:59:00.248Z,16.40
2017-07-20T05:01:26.904Z,20.80
2017-07-20T05:03:53.547Z,19.80
2017-07-20T05:06:20.239Z,12.87
2017-07-20T05:08:46.953Z,15.70
2017-07-20T05:11:13.592Z,12.87
2017-07-20T05:13:40.283Z,10.60
2017-07-20T05:16:06.940Z,12.30
2017-07-20T05:18:33.638Z,12.73
2017-07-20T05:21:00.343Z,12.40
2017-07-20T05:23:27.014Z,11.00
2017-07-20T05:25:53.670Z,14.50
2017-07-20T05:28:20.358Z,18.67
2017-07-20T05:30:47.062Z,13.43
2017-07-20T05:33:13.712Z,14.90
2017-07-20T05:35:40.376Z,13.00
2017-07-20T05:38:07.046Z,11.03
2017-07-20T05:40:33.703Z,8.70
2017-07-20T05:43:00.386Z,13.20
2017-07-20T05:45:27.032Z,13.73
2017-07-20T05:47:53.668Z,11.23
2017-07-20T05:50:20.362Z,7.27
2017-07-20T05:52:47.041Z,9.80
2017-07-20T05:55:13.686Z,8.83
2017-07-20T05:57:40.363Z,11.17
2017-07-20T06:00:07.015Z,9.40
2017-07-20T06:02:33.699Z,12.57
2017-07-20T06:05:00.367Z,8.80
2017-07-20T06:07:27.010Z,13.17
2017-07-20T06:09:53.691Z,13.20
2017-07-20T06:12:20.365Z,11.63
2017-07-20T06:14:47.036Z,5.40
2017-07-20T06:17:13.702Z,12.30
2017-07-20T06:19:40.369Z,8.90
2017-07-20T06:22:07.006Z,9.00
2017-07-20T06:24:33.676Z,10.30
2017-07-20T06:27:00.394Z,13.63
2017-07-20T06:29:27.056Z,8.20
2017-07-20T06:31:53.722Z,8.70
2017-07-20T06:34:20.404Z,9.93
2017-07-20T06:36:47.065Z,11.27
2017-07-20T06:39:13.723Z,8.10
2017-07-20T06:41:40.422Z,10.57
2017-07-20T06:44:07.085Z,7.27
2017-07-20T06:46:33.736Z,8.77
2017-07-20T06:49:00.416Z,9.27
2017-07-20T06:51:27.080Z,7.87
2017-07-20T06:53:53.721Z,7.37
2017-07-20T06:56:20.419Z,11.67
2017-07-20T06:58:47.059Z,7.83
2017-07-20T07:01:13.712Z,7.53
2017-07-20T07:03:40.390Z,7.60
2017-07-20T07:06:07.028Z,10.10
2017-07-20T07:08:33.667Z,8.03
2017-07-20T07:11:00.333Z,7.50
2017-07-20T07:13:26.972Z,7.43
2017-07-20T07:15:53.608Z,9.07
2017-07-20T07:18:20.279Z,7.30
2017-07-20T07:20:46.933Z,6.30
2017-07-20T07:23:13.599Z,13.50
2017-07-20T07:25:40.277Z,9.37
2017-07-20T07:28:06.942Z,5.63
2017-07-20T07:30:33.616Z,6.60
2017-07-20T07:33:00.303Z,6.90
2017-07-20T07:35:26.971Z,6.57
2017-07-20T07:37:53.630Z,10.70
2017-07-20T07:40:20.295Z,9.60
2017-07-20T07:42:46.968Z,6.40
2017-07-20T07:45:13.630Z,7.40
2017-07-20T07:47:40.308Z,8.87
2017-07-20T07:50:06.939Z,5.67
2017-07-20T07:52:33.607Z,9.27
2017-07-20T07:55:00.324Z,5.03
2017-07-20T07:57:26.987Z,7.13
2017-07-20T07:59:53.659Z,6.20
2017-07-20T08:02:20.367Z,5.63
2017-07-20T08:04:47.000Z,4.53
2017-07-20T08:07:13.657Z,6.20
2017-07-20T08:09:40.333Z,5.10
2017-07-20T08:12:06.978Z,6.43
2017-07-20T08:14:33.675Z,4.63
2017-07-20T08:17:00.364Z,7.50
2017-07-20T08:19:27.014Z,6.03
2017-07-20T08:21:53.687Z,4.27
2017-07-20T08:24:20.360Z,5.83
2017-07-20T08:26:47.005Z,4.80
2017-07-20T08:29:13.671Z,4.40
2017-07-20T08:31:40.340Z,5.10
2017-07-20T08:34:06.998Z,5.70
2017-07-20T08:36:33.653Z,4.30
2017-07-20T08:39:00.312Z,4.63
2017-07-20T08:41:26.935Z,5.37
2017-07-20T08:43:53.570Z,4.67
2017-07-20T08:46:20.292Z,4.57
2017-07-20T08:48:46.946Z,4.07
2017-07-20T08:51:13.608Z,4.40
2017-07-20T08:53:40.267Z,4.30
2017-07-20T08:56:06.908Z,2.87
2017-07-20T08:58:33.571Z,7.30
2017-07-20T09:01:00.262Z,3.70
2017-07-20T09:03:26.944Z,4.33
2017-07-20T09:05:53.576Z,4.53
2017-07-20T09:08:20.247Z,4.70
2017-07-20T09:10:46.903Z,4.70
2017-07-20T09:13:13.558Z,4.27
2017-07-20T09:15:40.247Z,3.90
2017-07-20T09:18:06.884Z,3.80
2017-07-20T09:20:33.544Z,4.33
2017-07-20T09:23:00.206Z,3.27
2017-07-20T09:25:26.877Z,3.90
2017-07-20T09:27:53.563Z,3.80
2017-07-20T09:30:20.264Z,3.90
2017-07-20T09:32:46.923Z,2.60
2017-07-20T09:35:13.574Z,2.97
2017-07-20T09:37:40.260Z,3.23
2017-07-20T09:40:06.914Z,2.77
2017-07-20T09:42:33.564Z,4.40
2017-07-20T09:45:06.166Z,2.60
2017-07-20T09:47:32.818Z,3.23
2017-07-20T09:49:59.454Z,6.63
2017-07-20T09:52:26.131Z,3.70
2017-07-20T09:54:52.768Z,4.60
2017-07-20T09:57:19.424Z,5.83
2017-07-20T09:59:46.147Z,5.33
2017-07-20T10:02:12.796Z,3.90
2017-07-20T10:04:39.437Z,4.97
2017-07-20T10:07:06.112Z,2.90
2017-07-20T10:09:32.785Z,6.83
2017-07-20T10:11:59.563Z,2.90
2017-07-20T10:14:26.283Z,2.80
2017-07-20T10:16:52.943Z,2.80
2017-07-20T10:19:19.593Z,2.60
2017-07-20T10:21:46.274Z,2.47
2017-07-20T10:24:12.917Z,2.73
2017-07-20T10:26:39.598Z,1.80
2017-07-20T10:29:06.290Z,2.50
2017-07-20T10:31:32.938Z,2.80
2017-07-20T10:33:59.606Z,2.83
2017-07-20T10:36:26.286Z,2.67
2017-07-20T10:38:52.930Z,2.60
2017-07-20T10:41:19.565Z,3.80
2017-07-20T10:43:46.258Z,5.20
2017-07-20T10:46:12.918Z,2.47
2017-07-20T10:48:39.556Z,2.20
2017-07-20T10:51:06.222Z,4.73
2017-07-20T10:53:32.856Z,2.03
2017-07-20T10:55:59.512Z,2.27
2017-07-20T10:58:26.179Z,2.30
2017-07-20T11:00:52.866Z,1.97
2017-07-20T11:03:19.507Z,1.43
2017-07-20T11:05:46.168Z,3.17
2017-07-20T11:08:12.829Z,2.10
2017-07-20T11:10:39.492Z,1.93
2017-07-20T11:13:06.175Z,2.90
2017-07-20T11:15:32.812Z,2.20
2017-07-20T11:17:59.460Z,2.37
2017-07-20T11:20:26.146Z,2.13
2017-07-20T11:22:52.783Z,2.47
2017-07-20T11:25:19.424Z,2.00
2017-07-20T11:27:46.089Z,1.60
2017-07-20T11:30:12.733Z,1.80
2017-07-20T11:32:39.367Z,2.50
2017-07-20T11:35:06.015Z,2.00
2017-07-20T11:37:32.647Z,2.27
2017-07-20T11:39:59.272Z,2.20
2017-07-20T11:42:25.923Z,2.10
2017-07-20T11:44:52.557Z,2.27
2017-07-20T11:47:19.238Z,2.30
2017-07-20T11:49:45.906Z,2.97
2017-07-20T11:52:12.543Z,2.50
2017-07-20T11:54:39.214Z,2.70
2017-07-20T11:57:05.900Z,2.37
2017-07-20T11:59:32.543Z,2.70
2017-07-20T12:01:59.203Z,2.47
2017-07-20T12:04:25.872Z,2.83
2017-07-20T12:06:52.523Z,4.27
2017-07-20T12:09:19.195Z,2.50
2017-07-20T12:11:45.858Z,2.67
2017-07-20T12:14:12.543Z,2.50
2017-07-20T12:16:39.198Z,1.67
2017-07-20T12:19:05.876Z,2.77
2017-07-20T12:21:32.533Z,1.60
2017-07-20T12:23:59.173Z,2.60
2017-07-20T12:26:25.844Z,3.93
2017-07-20T12:28:52.488Z,2.73
2017-07-20T12:31:19.134Z,2.87
2017-07-20T12:33:45.803Z,2.10
2017-07-20T12:36:12.436Z,2.70
2017-07-20T12:38:39.075Z,2.23
2017-07-20T12:41:05.750Z,3.53
2017-07-20T12:43:32.404Z,2.30
2017-07-20T12:45:59.056Z,2.10
2017-07-20T12:48:25.787Z,2.50
2017-07-20T12:50:52.434Z,2.00
2017-07-20T12:53:19.068Z,2.70
2017-07-20T12:55:45.736Z,4.90
2017-07-20T12:58:12.424Z,3.60
2017-07-20T13:00:39.068Z,2.70
2017-07-20T13:03:05.723Z,5.53
2017-07-20T13:05:32.387Z,2.33
2017-07-20T13:07:59.027Z,1.70
2017-07-20T13:10:25.728Z,1.80
2017-07-20T13:12:52.388Z,2.27
2017-07-20T13:15:19.040Z,2.03
2017-07-20T13:17:45.719Z,2.07
2017-07-20T13:20:12.415Z,1.73
2017-07-20T13:22:39.067Z,1.80
2017-07-20T13:25:05.728Z,3.20
2017-07-20T13:27:32.381Z,1.50
2017-07-20T13:29:59.032Z,2.27
2017-07-20T13:32:25.726Z,1.60
2017-07-20T13:34:52.392Z,3.23
2017-07-20T13:37:19.042Z,1.80
2017-07-20T13:39:45.740Z,1.80
2017-07-20T13:42:12.434Z,1.43
2017-07-20T13:44:39.088Z,1.93
2017-07-20T13:47:05.762Z,1.60
2017-07-20T13:49:32.415Z,2.37
2017-07-20T13:51:59.074Z,1.97
2017-07-20T13:54:25.768Z,1.40
2017-07-20T13:56:52.400Z,3.73
2017-07-20T13:59:19.044Z,4.20
2017-07-20T14:01:45.710Z,2.67
2017-07-20T14:04:12.370Z,1.80
2017-07-20T14:06:39.008Z,2.53
2017-07-20T14:09:05.672Z,1.70
2017-07-20T14:11:32.304Z,1.77
2017-07-20T14:13:58.941Z,1.87
2017-07-20T14:16:25.622Z,1.60
2017-07-20T14:18:52.273Z,1.97
2017-07-20T14:21:18.942Z,2.10
2017-07-20T14:23:45.635Z,1.63
2017-07-20T14:26:12.303Z,4.30
2017-07-20T14:28:38.955Z,2.50
2017-07-20T14:31:05.642Z,1.97
2017-07-20T14:33:32.286Z,2.90
2017-07-20T14:35:58.930Z,2.17
2017-07-20T14:38:25.619Z,2.53
2017-07-20T14:40:52.270Z,2.73
2017-07-20T14:43:18.922Z,2.50
2017-07-20T14:45:45.614Z,2.20
2017-07-20T14:48:12.265Z,3.40
2017-07-20T14:50:38.938Z,2.50
2017-07-20T14:53:05.591Z,7.83
2017-07-20T14:55:32.254Z,3.20
2017-07-20T14:57:58.898Z,2.37
2017-07-20T15:00:25.598Z,3.27
2017-07-20T15:02:52.240Z,2.60
2017-07-20T15:05:18.905Z,4.00
2017-07-20T15:07:45.576Z,4.33
2017-07-20T15:10:12.231Z,2.60
2017-07-20T15:12:38.887Z,5.67
2017-07-20T15:15:05.570Z,2.20
2017-07-20T15:17:32.218Z,3.03
2017-07-20T15:19:58.852Z,2.50
2017-07-20T15:22:25.501Z,4.43
2017-07-20T15:24:52.145Z,3.57
2017-07-20T15:27:18.794Z,4.33
2017-07-20T15:29:45.488Z,3.50
2017-07-20T15:32:12.135Z,3.33
2017-07-20T15:34:38.779Z,5.43
2017-07-20T15:37:05.441Z,4.10
2017-07-20T15:39:32.085Z,6.30
2017-07-20T15:41:58.796Z,2.93
2017-07-20T15:44:25.566Z,3.93
2017-07-20T15:46:52.224Z,2.97
2017-07-20T15:49:18.878Z,5.13
2017-07-20T15:51:45.552Z,5.20
2017-07-20T15:54:12.213Z,11.60
2017-07-20T15:56:38.858Z,6.97
2017-07-20T15:59:05.528Z,3.70
2017-07-20T16:01:32.177Z,2.80
2017-07-20T16:03:58.828Z,4.23
2017-07-20T16:06:25.500Z,5.13
2017-07-20T16:08:52.183Z,8.80
2017-07-20T16:11:19.662Z,5.90
2017-07-20T16:13:46.301Z,2.87
2017-07-20T16:16:12.952Z,6.03
2017-07-20T16:18:39.608Z,7.27
2017-07-20T16:21:06.262Z,7.50
2017-07-20T16:23:32.942Z,8.50
2017-07-20T16:25:59.602Z,6.10
2017-07-20T16:28:26.252Z,5.87
2017-07-20T16:30:52.926Z,9.00
2017-07-20T16:33:19.555Z,6.73
2017-07-20T16:35:46.210Z,7.60
2017-07-20T16:38:12.885Z,7.30
2017-07-20T16:40:39.535Z,4.73
2017-07-20T16:43:06.164Z,4.23
2017-07-20T16:45:32.818Z,8.77
2017-07-20T16:47:59.494Z,6.07
2017-07-20T16:50:26.170Z,12.30
2017-07-20T16:52:52.824Z,3.23
2017-07-20T16:55:19.464Z,6.33
2017-07-20T16:57:46.119Z,4.10
2017-07-20T17:00:12.778Z,4.33
2017-07-20T17:02:39.435Z,3.87
2017-07-20T17:05:06.072Z,5.53
2017-07-20T17:07:32.762Z,6.43
2017-07-20T17:09:59.400Z,5.20
2017-07-20T17:12:26.061Z,2.83
2017-07-20T17:14:52.766Z,7.27
2017-07-20T17:17:19.428Z,3.27
2017-07-20T17:19:46.221Z,2.47
2017-07-20T17:22:12.916Z,5.47
2017-07-20T17:24:39.641Z,5.80
2017-07-20T17:27:06.717Z,5.30
2017-07-20T17:29:33.420Z,8.10
2017-07-20T17:32:00.150Z,2.30
2017-07-20T17:34:26.807Z,5.30
2017-07-20T17:36:53.467Z,5.00
2017-07-20T17:39:20.300Z,4.03
2017-07-20T17:41:47.075Z,8.57
2017-07-20T17:44:13.903Z,3.37
2017-07-20T17:46:40.577Z,2.57
2017-07-20T17:49:07.296Z,2.80
2017-07-20T17:51:33.955Z,8.00
2017-07-20T17:54:00.605Z,5.00
2017-07-20T17:56:27.308Z,4.27
2017-07-20T17:58:54.008Z,5.07
2017-07-20T18:01:20.673Z,2.07
2017-07-20T18:03:47.325Z,4.77
2017-07-20T18:06:13.979Z,3.93
2017-07-20T18:08:40.641Z,3.47
2017-07-20T18:11:07.367Z,3.53
2017-07-20T18:13:34.043Z,8.93
2017-07-20T18:16:00.719Z,8.03
2017-07-20T18:18:27.417Z,5.00
2017-07-20T18:20:54.092Z,6.13
2017-07-20T18:23:20.746Z,4.00
2017-07-20T18:25:47.387Z,5.50
2017-07-20T18:28:14.059Z,3.13
2017-07-20T18:30:40.696Z,7.07
2017-07-20T18:33:07.352Z,4.07
2017-07-20T18:35:34.047Z,3.13
2017-07-20T18:38:00.713Z,6.57
2017-07-20T18:40:27.363Z,5.37
2017-07-20T18:42:54.025Z,6.67
2017-07-20T18:45:20.716Z,6.67
2017-07-20T18:47:47.383Z,6.00
2017-07-20T18:50:14.029Z,4.97
2017-07-20T18:52:40.699Z,6.70
2017-07-20T18:55:07.781Z,4.17
2017-07-20T18:57:34.495Z,2.87
2017-07-20T19:00:01.141Z,6.37
2017-07-20T19:02:27.836Z,7.27
2017-07-20T19:04:54.494Z,5.70
2017-07-20T19:07:21.193Z,10.73
2017-07-20T19:09:47.878Z,8.47
2017-07-20T19:12:14.584Z,9.90
2017-07-20T19:14:41.230Z,3.83
2017-07-20T19:17:07.894Z,8.67
2017-07-20T19:19:34.560Z,4.77
2017-07-20T19:22:01.219Z,5.13
2017-07-20T19:24:27.874Z,6.50
2017-07-20T19:26:54.548Z,4.37
2017-07-20T19:29:21.204Z,8.77
2017-07-20T19:31:47.894Z,5.33
2017-07-20T19:34:14.549Z,3.63
2017-07-20T19:36:41.216Z,10.77
2017-07-20T19:39:07.903Z,8.00
2017-07-20T19:41:34.559Z,5.53
2017-07-20T19:44:01.222Z,4.23
2017-07-20T19:46:27.896Z,5.40
2017-07-20T19:48:54.552Z,5.37
2017-07-20T19:51:21.201Z,9.77
2017-07-20T19:53:47.914Z,4.53
2017-07-20T19:56:14.568Z,4.80
2017-07-20T19:58:41.224Z,7.10
2017-07-20T20:01:07.920Z,5.87
2017-07-20T20:03:34.583Z,5.80
2017-07-20T20:06:01.266Z,5.70
2017-07-20T20:08:27.935Z,5.40
2017-07-20T20:10:54.606Z,4.73
2017-07-20T20:13:21.275Z,7.57
2017-07-20T20:15:47.962Z,3.97
2017-07-20T20:18:14.630Z,6.63
2017-07-20T20:20:41.286Z,7.93
2017-07-20T20:23:07.940Z,4.90
2017-07-20T20:25:34.639Z,5.00
2017-07-20T20:28:01.317Z,4.63
2017-07-20T20:30:27.993Z,5.40
2017-07-20T20:32:54.658Z,3.80
2017-07-20T20:35:21.346Z,6.90
2017-07-20T20:37:48.061Z,5.97
2017-07-20T20:40:14.742Z,5.33
2017-07-20T20:42:41.417Z,7.47
2017-07-20T20:45:08.107Z,6.90
2017-07-20T20:47:34.790Z,7.93
2017-07-20T20:50:01.530Z,7.20
2017-07-20T20:52:28.292Z,5.20
2017-07-20T20:54:55.040Z,6.13
2017-07-20T20:57:21.732Z,6.70
2017-07-20T20:59:48.396Z,7.63
2017-07-20T21:02:15.153Z,6.03
2017-07-20T21:04:41.819Z,8.73
2017-07-20T21:07:08.470Z,5.83
2017-07-20T21:09:35.136Z,8.70
2017-07-20T21:12:02.103Z,8.40
2017-07-20T21:14:28.850Z,6.73
2017-07-20T21:16:55.524Z,6.80
2017-07-20T21:19:22.201Z,12.20
2017-07-20T21:21:48.880Z,7.40
2017-07-20T21:24:15.539Z,8.20
2017-07-20T21:26:42.193Z,8.93
2017-07-20T21:29:08.867Z,6.17
2017-07-20T21:31:35.531Z,7.53
2017-07-20T21:34:02.401Z,7.93
2017-07-20T21:36:29.094Z,7.77
2017-07-20T21:38:55.736Z,10.47
2017-07-20T21:41:22.384Z,5.73
2017-07-20T21:43:49.172Z,9.00
2017-07-20T21:46:15.914Z,3.97
2017-07-20T21:48:42.803Z,5.67
2017-07-20T21:51:09.459Z,10.53
2017-07-20T21:53:36.105Z,7.07
2017-07-20T21:56:02.774Z,5.60
2017-07-20T21:58:29.440Z,10.90
2017-07-20T22:00:56.094Z,2.90
2017-07-20T22:03:22.775Z,6.37
2017-07-20T22:05:49.448Z,6.13
2017-07-20T22:08:16.131Z,10.33
2017-07-20T22:10:42.802Z,7.13
2017-07-20T22:13:09.503Z,4.10
2017-07-20T22:15:36.161Z,5.33
2017-07-20T22:18:02.788Z,7.33
2017-07-20T22:20:29.467Z,7.60
2017-07-20T22:22:56.118Z,6.33
2017-07-20T22:25:22.800Z,5.13
2017-07-20T22:27:49.478Z,6.20
2017-07-20T22:30:16.112Z,7.27
2017-07-20T22:32:42.762Z,6.43
2017-07-20T22:35:09.439Z,4.73
2017-07-20T22:37:36.079Z,7.37
2017-07-20T22:40:02.740Z,10.33
2017-07-20T22:42:29.450Z,7.40
2017-07-20T22:44:56.105Z,6.73
2017-07-20T22:47:22.767Z,7.10
2017-07-20T22:49:49.596Z,6.60
2017-07-20T22:52:16.228Z,5.90
2017-07-20T22:54:42.873Z,8.30
2017-07-20T22:57:09.558Z,8.13
2017-07-20T22:59:36.223Z,5.00
2017-07-20T23:02:02.904Z,10.50
2017-07-20T23:04:29.589Z,7.77
2017-07-20T23:06:56.276Z,4.50
2017-07-20T23:09:22.933Z,7.80
2017-07-20T23:11:49.600Z,13.33
2017-07-20T23:14:16.283Z,10.37
2017-07-20T23:16:42.916Z,6.00
2017-07-20T23:19:09.593Z,7.07
2017-07-20T23:21:36.232Z,7.30
2017-07-20T23:24:02.887Z,9.60
2017-07-20T23:26:29.588Z,8.23
2017-07-20T23:28:56.288Z,7.40
2017-07-20T23:31:22.981Z,12.20
2017-07-20T23:33:49.667Z,4.00
2017-07-20T23:36:16.319Z,17.20
2017-07-20T23:38:42.969Z,6.73
2017-07-20T23:41:09.656Z,6.07
2017-07-20T23:43:36.331Z,5.20
2017-07-20T23:46:03.011Z,8.90
2017-07-20T23:48:29.681Z,23.73
2017-07-20T23:50:56.328Z,9.20
2017-07-20T23:53:23.028Z,10.97
2017-07-20T23:55:49.711Z,9.90
2017-07-20T23:58:16.381Z,11.27
